Time;durP1;ratioP1;P1;durP2;ratioP2;P2;SDS_P1;SDS_P2;PMS_P1;PMS_P2;Temp;Humidity;BMP_temperature;BMP_pressure;BME280_temperature;BME280_humidity;BME280_pressure;Samples;Min_cycle;Max_cycle;Signal;HPM_P1;HPM_P2
2021/04/23 00:02:05;;;;;;;6.03;4.88;;;;;;;;;;5054680;28;20029;-63
2021/04/23 00:04:31;;;;;;;16.27;6.20;;;;;;;;;;5055219;28;20028;-63
2021/04/23 00:06:58;;;;;;;7.10;5.25;;;;;;;;;;5054043;28;20107;-63
2021/04/23 00:09:28;;;;;;;6.70;5.20;;;;;;;;;;5054413;28;20510;-63
2021/04/23 00:11:59;;;;;;;6.68;5.70;;;;;;;;;;5057091;28;20056;-63
2021/04/23 00:14:26;;;;;;;14.88;4.85;;;;;;;;;;5052870;28;20049;-63
2021/04/23 00:16:51;;;;;;;8.43;6.28;;;;;;;;;;5054702;28;20404;-63
2021/04/23 00:19:19;;;;;;;20.48;15.60;;;;;;;;;;5053158;28;20048;-63
2021/04/23 00:21:44;;;;;;;18.70;15.30;;;;;;;;;;5053466;28;20433;-63
2021/04/23 00:24:10;;;;;;;10.10;8.38;;;;;;;;;;5053686;28;20063;-63
2021/04/23 00:26:36;;;;;;;6.43;5.45;;;;;;;;;;5052510;28;20028;-63
2021/04/23 00:29:02;;;;;;;17.90;6.07;;;;;;;;;;5053932;28;20475;-63
2021/04/23 00:31:27;;;;;;;6.53;5.55;;;;;;;;;;5052315;28;20032;-63
2021/04/23 00:33:52;;;;;;;7.43;5.63;;;;;;;;;;5052264;28;20029;-63
2021/04/23 00:36:18;;;;;;;6.28;5.15;;;;;;;;;;5060251;28;20013;-63
2021/04/23 00:38:43;;;;;;;10.00;7.13;;;;;;;;;;5056047;28;20040;-63
2021/04/23 00:41:13;;;;;;;9.18;6.40;;;;;;;;;;5054411;28;20025;-63
2021/04/23 00:43:40;;;;;;;5.78;4.57;;;;;;;;;;5053602;28;20028;-63
2021/04/23 00:46:05;;;;;;;6.13;5.43;;;;;;;;;;5052200;28;20028;-63
2021/04/23 00:48:32;;;;;;;10.63;9.55;;;;;;;;;;5052793;28;20564;-63
2021/04/23 00:51:04;;;;;;;22.85;20.77;;;;;;;;;;5053310;28;20109;-63
2021/04/23 00:53:31;;;;;;;6.80;6.18;;;;;;;;;;5052556;28;20033;-63
2021/04/23 00:55:57;;;;;;;5.78;5.20;;;;;;;;;;5057914;28;20440;-63
2021/04/23 00:58:24;;;;;;;9.07;4.18;;;;;;;;;;5057030;28;20025;-63
2021/04/23 01:00:51;;;;;;;6.60;5.93;;;;;;;;;;5055078;28;20028;-63
2021/04/23 01:03:17;;;;;;;7.93;6.45;;;;;;;;;;5052794;28;20068;-63
2021/04/23 01:05:43;;;;;;;14.75;6.35;;;;;;;;;;5052785;28;20021;-63
2021/04/23 01:08:08;;;;;;;8.05;5.90;;;;;;;;;;5052146;28;20025;-63
2021/04/23 01:10:34;;;;;;;7.85;6.28;;;;;;;;;;5051929;28;20025;-63
2021/04/23 01:12:59;;;;;;;10.27;7.63;;;;;;;;;;5051451;28;20033;-63
2021/04/23 01:15:25;;;;;;;12.20;7.78;;;;;;;;;;5052314;28;20025;-63
2021/04/23 01:17:51;;;;;;;8.45;6.85;;;;;;;;;;5052237;28;20043;-63
2021/04/23 01:20:16;;;;;;;10.95;7.53;;;;;;;;;;5051097;28;20387;-63
2021/04/23 01:22:42;;;;;;;11.50;7.45;;;;;;;;;;5055614;28;20033;-63
2021/04/23 01:25:07;;;;;;;11.38;6.47;;;;;;;;;;5057801;28;20079;-63
2021/04/23 01:27:33;;;;;;;7.60;5.95;;;;;;;;;;5051181;28;20029;-63
2021/04/23 01:29:59;;;;;;;6.40;5.05;;;;;;;;;;5050995;28;20108;-63
2021/04/23 01:32:24;;;;;;;6.53;4.78;;;;;;;;;;5040979;28;20074;-63
2021/04/23 01:34:50;;;;;;;7.25;6.28;;;;;;;;;;5056001;28;20044;-63
2021/04/23 01:37:15;;;;;;;6.57;5.35;;;;;;;;;;5050983;28;20056;-63
2021/04/23 01:39:42;;;;;;;9.70;7.30;;;;;;;;;;5051350;28;20096;-63
2021/04/23 01:42:08;;;;;;;15.05;6.93;;;;;;;;;;5050832;28;20095;-63
2021/04/23 01:44:34;;;;;;;6.55;5.90;;;;;;;;;;5051879;28;20908;-63
2021/04/23 01:47:00;;;;;;;6.78;6.10;;;;;;;;;;5051617;28;20025;-63
2021/04/23 01:49:26;;;;;;;9.95;6.78;;;;;;;;;;5051547;28;20059;-63
2021/04/23 01:51:53;;;;;;;8.40;7.07;;;;;;;;;;5053916;28;20021;-63
2021/04/23 01:54:19;;;;;;;9.23;7.45;;;;;;;;;;5054544;28;20459;-63
2021/04/23 01:56:45;;;;;;;10.00;7.10;;;;;;;;;;5055219;28;20463;-63
2021/04/23 01:59:11;;;;;;;8.13;5.75;;;;;;;;;;5051122;28;20082;-63
2021/04/23 02:01:36;;;;;;;7.80;6.80;;;;;;;;;;5052366;28;20033;-63
2021/04/23 02:04:03;;;;;;;8.18;5.68;;;;;;;;;;5052942;28;20024;-63
2021/04/23 02:06:28;;;;;;;6.53;5.82;;;;;;;;;;5050543;28;20470;-63
2021/04/23 02:08:54;;;;;;;10.38;5.30;;;;;;;;;;5051993;28;20029;-63
2021/04/23 02:11:21;;;;;;;11.70;5.35;;;;;;;;;;5050239;28;20021;-63
2021/04/23 02:13:47;;;;;;;10.35;7.45;;;;;;;;;;5052807;28;20031;-62
2021/04/23 02:16:14;;;;;;;11.52;8.15;;;;;;;;;;5051467;28;20036;-62
2021/04/23 02:18:39;;;;;;;7.32;6.63;;;;;;;;;;5054936;28;20024;-63
2021/04/23 02:21:06;;;;;;;8.38;7.45;;;;;;;;;;5050317;28;20547;-63
2021/04/23 02:23:31;;;;;;;8.00;7.18;;;;;;;;;;5050296;28;20114;-63
2021/04/23 02:25:57;;;;;;;8.55;6.28;;;;;;;;;;5038648;28;20106;-63
2021/04/23 02:28:22;;;;;;;6.63;5.50;;;;;;;;;;5050411;28;20036;-63
2021/04/23 02:30:50;;;;;;;13.75;7.13;;;;;;;;;;5051172;28;20017;-63
2021/04/23 02:33:17;;;;;;;20.48;7.53;;;;;;;;;;5051019;28;20021;-62
2021/04/23 02:35:43;;;;;;;16.90;6.35;;;;;;;;;;5051857;28;20028;-63
2021/04/23 02:38:09;;;;;;;7.65;5.22;;;;;;;;;;5052236;28;20060;-63
2021/04/23 02:40:34;;;;;;;9.38;6.78;;;;;;;;;;5052437;28;20053;-63
2021/04/23 02:43:02;;;;;;;6.38;4.18;;;;;;;;;;5050954;28;20037;-63
2021/04/23 02:45:31;;;;;;;12.60;5.57;;;;;;;;;;5052911;28;20028;-63
2021/04/23 02:47:57;;;;;;;8.02;5.72;;;;;;;;;;5051469;28;20490;-63
2021/04/23 02:50:24;;;;;;;7.10;6.13;;;;;;;;;;5049677;28;20025;-63
2021/04/23 02:52:49;;;;;;;7.75;5.72;;;;;;;;;;5053459;28;20331;-62
2021/04/23 02:55:15;;;;;;;8.27;6.07;;;;;;;;;;5049991;28;20025;-63
2021/04/23 02:57:40;;;;;;;5.18;4.13;;;;;;;;;;5050186;28;20024;-63
2021/04/23 03:00:14;;;;;;;7.85;6.20;;;;;;;;;;5053009;28;20024;-62
2021/04/23 03:02:39;;;;;;;11.25;6.88;;;;;;;;;;5050506;28;20487;-63
2021/04/23 03:05:05;;;;;;;5.90;5.32;;;;;;;;;;5050704;28;20043;-63
2021/04/23 03:07:30;;;;;;;5.40;4.88;;;;;;;;;;5050405;28;20017;-63
2021/04/23 03:09:55;;;;;;;6.90;4.15;;;;;;;;;;5052456;28;20463;-62
2021/04/23 03:12:21;;;;;;;5.57;4.80;;;;;;;;;;5052643;28;20104;-63
2021/04/23 03:14:46;;;;;;;8.00;5.47;;;;;;;;;;5052888;28;20512;-63
2021/04/23 03:17:11;;;;;;;7.45;5.53;;;;;;;;;;5049721;28;20075;-63
2021/04/23 03:19:37;;;;;;;6.50;5.90;;;;;;;;;;5051023;28;20044;-63
2021/04/23 03:22:02;;;;;;;6.97;5.68;;;;;;;;;;5057617;28;20379;-63
2021/04/23 03:24:27;;;;;;;8.18;5.65;;;;;;;;;;5055734;28;20119;-63
2021/04/23 03:26:53;;;;;;;7.03;4.95;;;;;;;;;;5050752;28;20055;-62
2021/04/23 03:29:18;;;;;;;5.28;4.88;;;;;;;;;;5050907;28;20082;-63
2021/04/23 03:31:44;;;;;;;7.47;5.53;;;;;;;;;;5054061;28;20013;-63
2021/04/23 03:34:09;;;;;;;9.07;7.65;;;;;;;;;;5053490;28;20026;-63
2021/04/23 03:36:34;;;;;;;12.68;5.18;;;;;;;;;;5053413;28;20017;-63
2021/04/23 03:39:00;;;;;;;6.28;5.03;;;;;;;;;;5053856;28;20929;-62
2021/04/23 03:41:29;;;;;;;6.40;4.63;;;;;;;;;;5056583;28;20048;-63
2021/04/23 03:43:55;;;;;;;10.43;5.57;;;;;;;;;;5055715;28;20029;-62
2021/04/23 03:46:20;;;;;;;11.07;6.53;;;;;;;;;;5053619;28;20047;-63
2021/04/23 03:48:46;;;;;;;5.35;4.60;;;;;;;;;;5053493;28;20037;-63
2021/04/23 03:51:12;;;;;;;9.52;4.80;;;;;;;;;;5053205;28;20558;-63
2021/04/23 03:53:38;;;;;;;10.63;4.70;;;;;;;;;;5053654;28;20095;-62
2021/04/23 03:56:04;;;;;;;5.95;5.03;;;;;;;;;;5053186;28;20418;-63
2021/04/23 03:58:31;;;;;;;5.45;4.78;;;;;;;;;;5053472;28;20438;-63
2021/04/23 04:00:58;;;;;;;5.25;4.47;;;;;;;;;;5053223;28;20029;-63
2021/04/23 04:03:24;;;;;;;9.10;4.72;;;;;;;;;;5053140;28;20087;-63
2021/04/23 04:05:50;;;;;;;8.57;4.95;;;;;;;;;;5058878;28;20067;-62
2021/04/23 04:08:15;;;;;;;6.93;6.32;;;;;;;;;;5052931;28;20456;-62
2021/04/23 04:10:41;;;;;;;8.07;5.65;;;;;;;;;;5052677;28;20025;-62
2021/04/23 04:13:07;;;;;;;6.47;5.03;;;;;;;;;;5052271;28;20021;-62
2021/04/23 04:15:32;;;;;;;4.93;4.28;;;;;;;;;;5056105;28;20111;-62
2021/04/23 04:17:58;;;;;;;5.70;4.78;;;;;;;;;;5055002;28;20028;-62
2021/04/23 04:20:26;;;;;;;6.88;5.38;;;;;;;;;;5054136;28;20498;-63
2021/04/23 04:22:51;;;;;;;4.80;3.83;;;;;;;;;;5052609;28;20052;-62
2021/04/23 04:25:20;;;;;;;5.18;4.07;;;;;;;;;;5052431;28;20017;-64
2021/04/23 04:27:45;;;;;;;4.97;4.47;;;;;;;;;;5053302;28;20051;-62
2021/04/23 04:30:10;;;;;;;6.45;5.18;;;;;;;;;;5063638;28;20768;-63
2021/04/23 04:32:36;;;;;;;4.57;4.10;;;;;;;;;;5055762;28;20036;-63
2021/04/23 04:35:02;;;;;;;6.20;3.97;;;;;;;;;;5052296;28;20033;-62
2021/04/23 04:37:28;;;;;;;4.30;3.33;;;;;;;;;;5056033;28;20009;-63
2021/04/23 04:39:53;;;;;;;4.13;3.72;;;;;;;;;;5054877;28;20079;-63
2021/04/23 04:42:18;;;;;;;6.10;3.42;;;;;;;;;;5054273;28;20025;-63
2021/04/23 04:44:43;;;;;;;7.07;4.35;;;;;;;;;;5052490;28;20131;-62
2021/04/23 04:47:09;;;;;;;4.65;3.85;;;;;;;;;;5054358;28;20020;-62
2021/04/23 04:49:34;;;;;;;5.55;3.78;;;;;;;;;;5052569;28;20036;-61
2021/04/23 04:51:59;;;;;;;10.27;4.47;;;;;;;;;;5051829;28;20116;-61
2021/04/23 04:54:25;;;;;;;9.98;4.88;;;;;;;;;;5052267;28;20067;-61
2021/04/23 04:56:50;;;;;;;7.60;5.03;;;;;;;;;;5057068;28;20028;-62
2021/04/23 04:59:15;;;;;;;4.80;4.35;;;;;;;;;;5055834;28;20078;-62
2021/04/23 05:01:41;;;;;;;6.50;3.55;;;;;;;;;;5053874;28;20021;-62
2021/04/23 05:04:06;;;;;;;5.03;3.85;;;;;;;;;;5052642;28;20029;-63
2021/04/23 05:06:31;;;;;;;14.30;8.30;;;;;;;;;;5052792;28;20032;-63
2021/04/23 05:08:57;;;;;;;8.88;4.78;;;;;;;;;;5051986;28;20473;-62
2021/04/23 05:11:22;;;;;;;7.15;5.32;;;;;;;;;;5058330;28;20025;-63
2021/04/23 05:13:47;;;;;;;8.43;6.15;;;;;;;;;;5057079;28;20368;-62
2021/04/23 05:16:13;;;;;;;16.10;8.15;;;;;;;;;;5053805;28;20025;-62
2021/04/23 05:18:38;;;;;;;8.68;4.72;;;;;;;;;;5053325;28;20013;-63
2021/04/23 05:21:03;;;;;;;53.05;48.55;;;;;;;;;;5051156;28;20202;-61
2021/04/23 05:23:29;;;;;;;10.50;6.90;;;;;;;;;;5051497;28;20028;-61
2021/04/23 05:25:54;;;;;;;5.75;3.08;;;;;;;;;;5053192;28;20027;-62
2021/04/23 05:28:19;;;;;;;7.00;4.80;;;;;;;;;;5051442;28;20029;-61
2021/04/23 05:30:45;;;;;;;6.40;4.32;;;;;;;;;;5051567;28;20441;-61
2021/04/23 05:33:11;;;;;;;5.30;4.28;;;;;;;;;;5057261;28;20037;-61
2021/04/23 05:35:38;;;;;;;3.90;3.50;;;;;;;;;;5052348;28;20047;-61
2021/04/23 05:38:03;;;;;;;29.98;5.93;;;;;;;;;;5052764;28;20491;-61
2021/04/23 05:40:30;;;;;;;9.15;4.07;;;;;;;;;;5052106;28;20021;-62
2021/04/23 05:42:56;;;;;;;7.13;4.85;;;;;;;;;;5035680;28;20025;-62
2021/04/23 05:45:22;;;;;;;13.88;12.40;;;;;;;;;;5051179;28;20486;-61
2021/04/23 05:47:48;;;;;;;16.88;5.95;;;;;;;;;;5050963;28;20498;-61
2021/04/23 05:50:15;;;;;;;11.82;7.07;;;;;;;;;;5050705;28;20109;-62
2021/04/23 05:52:42;;;;;;;16.23;8.40;;;;;;;;;;5052530;28;20029;-61
2021/04/23 05:55:08;;;;;;;18.42;9.25;;;;;;;;;;5051062;28;20436;-61
2021/04/23 05:57:33;;;;;;;13.68;9.05;;;;;;;;;;5061413;28;20021;-61
2021/04/23 05:59:59;;;;;;;8.65;6.05;;;;;;;;;;5053223;28;20013;-62
2021/04/23 06:02:24;;;;;;;24.85;19.60;;;;;;;;;;5050414;28;20086;-60
2021/04/23 06:04:50;;;;;;;14.48;9.25;;;;;;;;;;5050410;28;20047;-60
2021/04/23 06:07:15;;;;;;;6.03;4.65;;;;;;;;;;5057441;28;20017;-61
2021/04/23 06:09:40;;;;;;;5.38;4.88;;;;;;;;;;5056387;28;20056;-60
2021/04/23 06:12:06;;;;;;;12.27;7.80;;;;;;;;;;5050113;28;20053;-60
2021/04/23 06:14:31;;;;;;;5.50;4.05;;;;;;;;;;5053260;28;20059;-60
2021/04/23 06:16:57;;;;;;;8.82;5.07;;;;;;;;;;5051152;28;20040;-60
2021/04/23 06:19:23;;;;;;;21.80;12.18;;;;;;;;;;5052785;28;20045;-60
2021/04/23 06:21:48;;;;;;;24.05;10.05;;;;;;;;;;5051330;28;20537;-60
2021/04/23 06:24:14;;;;;;;5.50;4.97;;;;;;;;;;5050531;28;20086;-60
2021/04/23 06:26:40;;;;;;;9.32;6.35;;;;;;;;;;5050139;28;20050;-60
2021/04/23 06:29:05;;;;;;;77.18;68.82;;;;;;;;;;5050442;28;20455;-60
2021/04/23 06:31:32;;;;;;;48.83;43.88;;;;;;;;;;5051587;28;20444;-60
2021/04/23 06:33:57;;;;;;;31.23;28.17;;;;;;;;;;5049008;28;20025;-60
2021/04/23 06:36:22;;;;;;;28.60;25.50;;;;;;;;;;5051598;28;20379;-59
2021/04/23 06:38:48;;;;;;;22.90;20.50;;;;;;;;;;5050494;28;20583;-60
2021/04/23 06:41:14;;;;;;;25.83;18.10;;;;;;;;;;5050518;28;20029;-60
2021/04/23 06:43:41;;;;;;;28.70;14.32;;;;;;;;;;5050946;28;20459;-60
2021/04/23 06:46:06;;;;;;;23.23;16.98;;;;;;;;;;5050251;28;20028;-60
2021/04/23 06:48:31;;;;;;;25.10;19.48;;;;;;;;;;5051792;28;20033;-60
2021/04/23 06:50:59;;;;;;;30.95;16.05;;;;;;;;;;5053903;28;20043;-59
2021/04/23 06:53:24;;;;;;;14.70;13.23;;;;;;;;;;5055283;28;20034;-60
2021/04/23 06:55:49;;;;;;;7.80;7.00;;;;;;;;;;5052769;28;20440;-60
2021/04/23 06:58:15;;;;;;;8.68;7.78;;;;;;;;;;5050871;28;20110;-60
2021/04/23 07:00:42;;;;;;;6.22;5.50;;;;;;;;;;5050340;28;20078;-60
2021/04/23 07:03:09;;;;;;;8.43;7.47;;;;;;;;;;5050448;28;20101;-60
2021/04/23 07:05:35;;;;;;;8.23;7.53;;;;;;;;;;5059296;28;20440;-60
2021/04/23 07:08:01;;;;;;;10.43;9.43;;;;;;;;;;5054156;28;20037;-60
2021/04/23 07:10:27;;;;;;;14.32;10.05;;;;;;;;;;5055537;28;20207;-60
2021/04/23 07:12:52;;;;;;;17.77;11.00;;;;;;;;;;5058291;28;20036;-59
2021/04/23 07:15:19;;;;;;;14.13;11.75;;;;;;;;;;5060060;28;20120;-60
2021/04/23 07:17:48;;;;;;;8.75;7.82;;;;;;;;;;5058974;28;20045;-60
2021/04/23 07:20:14;;;;;;;7.80;5.82;;;;;;;;;;5053038;28;20041;-60
2021/04/23 07:22:39;;;;;;;6.47;5.88;;;;;;;;;;5056586;28;20420;-60
2021/04/23 07:25:05;;;;;;;13.38;5.82;;;;;;;;;;5055184;28;20094;-60
2021/04/23 07:27:34;;;;;;;10.65;3.58;;;;;;;;;;5054549;28;20024;-60
2021/04/23 07:30:01;;;;;;;9.55;4.00;;;;;;;;;;5054117;28;20047;-60
2021/04/23 07:32:26;;;;;;;4.00;2.60;;;;;;;;;;5055275;28;20021;-61
2021/04/23 07:34:51;;;;;;;3.67;2.53;;;;;;;;;;5055002;28;20032;-60
2021/04/23 07:37:17;;;;;;;4.53;2.90;;;;;;;;;;5055550;28;20143;-62
2021/04/23 07:39:42;;;;;;;6.35;3.85;;;;;;;;;;5054524;28;20030;-61
2021/04/23 07:42:07;;;;;;;5.07;3.80;;;;;;;;;;5053774;28;20049;-62
2021/04/23 07:44:33;;;;;;;8.93;4.53;;;;;;;;;;5058916;28;20455;-62
2021/04/23 07:46:58;;;;;;;17.40;6.65;;;;;;;;;;5056357;28;20028;-61
2021/04/23 07:49:23;;;;;;;5.15;3.75;;;;;;;;;;5054075;28;20036;-61
2021/04/23 07:51:49;;;;;;;8.68;3.72;;;;;;;;;;5053064;28;20479;-66
2021/04/23 07:54:15;;;;;;;8.00;4.13;;;;;;;;;;5053315;28;20045;-66
2021/04/23 07:56:40;;;;;;;11.48;5.10;;;;;;;;;;5061107;28;20065;-66
2021/04/23 07:59:06;;;;;;;7.45;3.67;;;;;;;;;;5057443;28;20477;-66
2021/04/23 08:01:31;;;;;;;5.90;5.05;;;;;;;;;;5040709;28;20034;-66
2021/04/23 08:03:57;;;;;;;10.40;3.95;;;;;;;;;;5053481;28;20107;-66
2021/04/23 08:06:22;;;;;;;4.65;3.38;;;;;;;;;;5053435;28;20029;-66
2021/04/23 08:08:48;;;;;;;4.65;3.10;;;;;;;;;;5051977;28;20040;-66
2021/04/23 08:11:13;;;;;;;4.93;3.45;;;;;;;;;;5053245;28;20021;-66
2021/04/23 08:13:38;;;;;;;7.95;5.40;;;;;;;;;;5053634;28;20017;-66
2021/04/23 08:16:04;;;;;;;5.15;2.97;;;;;;;;;;5054479;28;20017;-66
2021/04/23 08:18:33;;;;;;;9.90;4.22;;;;;;;;;;5053829;28;20029;-66
2021/04/23 08:20:59;;;;;;;18.52;15.52;;;;;;;;;;5051164;28;20052;-66
2021/04/23 08:23:24;;;;;;;42.15;36.92;;;;;;;;;;5055786;28;20053;-67
2021/04/23 08:25:52;;;;;;;22.05;12.32;;;;;;;;;;5052149;28;20067;-66
2021/04/23 08:28:17;;;;;;;17.25;14.95;;;;;;;;;;5051564;28;20379;-67
2021/04/23 08:30:43;;;;;;;15.90;13.73;;;;;;;;;;5051926;28;20025;-67
2021/04/23 08:33:08;;;;;;;7.32;4.50;;;;;;;;;;5048250;28;20029;-68
2021/04/23 08:35:33;;;;;;;9.68;3.95;;;;;;;;;;5052314;28;20079;-68
2021/04/23 08:37:59;;;;;;;6.35;3.53;;;;;;;;;;5051996;28;20021;-67
2021/04/23 08:40:24;;;;;;;6.47;5.15;;;;;;;;;;5053908;28;20875;-67
2021/04/23 08:42:51;;;;;;;6.32;4.20;;;;;;;;;;5060943;28;20052;-67
2021/04/23 08:45:17;;;;;;;8.25;7.43;;;;;;;;;;5058004;28;20108;-67
2021/04/23 08:47:43;;;;;;;6.50;5.88;;;;;;;;;;5051852;28;20017;-67
2021/04/23 08:50:10;;;;;;;14.38;7.95;;;;;;;;;;5053891;28;20017;-67
2021/04/23 08:52:35;;;;;;;4.38;3.80;;;;;;;;;;5055672;28;20078;-67
2021/04/23 08:55:02;;;;;;;9.50;5.75;;;;;;;;;;5054645;28;20036;-67
2021/04/23 08:57:27;;;;;;;6.57;5.80;;;;;;;;;;5052422;28;20074;-68
2021/04/23 08:59:52;;;;;;;28.80;13.90;;;;;;;;;;5051864;28;20508;-67
2021/04/23 09:02:18;;;;;;;114.00;26.77;;;;;;;;;;5051792;28;20024;-66
2021/04/23 09:04:43;;;;;;;19.20;9.13;;;;;;;;;;5055534;28;20024;-68
2021/04/23 09:07:08;;;;;;;12.13;4.97;;;;;;;;;;5052715;28;20040;-68
2021/04/23 09:09:36;;;;;;;9.63;5.78;;;;;;;;;;5032333;28;20044;-67
2021/04/23 09:12:14;;;;;;;10.75;6.97;;;;;;;;;;5033058;28;20516;-68
2021/04/23 09:14:39;;;;;;;12.45;4.00;;;;;;;;;;5049425;28;20025;-68
2021/04/23 09:17:05;;;;;;;10.95;4.80;;;;;;;;;;5051949;28;20070;-68
2021/04/23 09:19:30;;;;;;;4.32;3.40;;;;;;;;;;5048809;28;20074;-68
2021/04/23 09:21:57;;;;;;;21.10;4.72;;;;;;;;;;5049853;28;20029;-68
2021/04/23 09:24:33;;;;;;;11.02;8.48;;;;;;;;;;5048750;28;20374;-67
2021/04/23 09:27:00;;;;;;;9.43;6.22;;;;;;;;;;5047205;28;20075;-68
2021/04/23 09:29:27;;;;;;;8.77;5.80;;;;;;;;;;5048490;28;20396;-68
2021/04/23 09:31:52;;;;;;;9.15;6.88;;;;;;;;;;5048540;28;20017;-68
2021/04/23 09:34:18;;;;;;;13.10;5.63;;;;;;;;;;5049198;28;20158;-67
2021/04/23 09:36:45;;;;;;;11.20;6.45;;;;;;;;;;5047633;28;20028;-67
2021/04/23 09:39:16;;;;;;;7.57;5.05;;;;;;;;;;5048236;28;20055;-68
2021/04/23 09:41:46;;;;;;;8.23;5.50;;;;;;;;;;5047365;28;20029;-69
2021/04/23 09:44:31;;;;;;;3.42;2.28;;;;;;;;;;5048522;28;20048;-68
2021/04/23 09:46:58;;;;;;;7.90;4.40;;;;;;;;;;5053812;28;20514;-68
2021/04/23 09:49:24;;;;;;;17.33;5.38;;;;;;;;;;5051177;28;20043;-68
2021/04/23 09:51:49;;;;;;;15.48;6.47;;;;;;;;;;5049359;28;20029;-68
2021/04/23 09:54:24;;;;;;;14.00;3.30;;;;;;;;;;5048874;28;20055;-68
2021/04/23 09:56:50;;;;;;;7.57;5.47;;;;;;;;;;5047795;28;20478;-68
2021/04/23 09:59:24;;;;;;;6.82;3.70;;;;;;;;;;5047817;28;20032;-68
2021/04/23 10:02:00;;;;;;;7.65;3.22;;;;;;;;;;5048571;28;20090;-68
2021/04/23 10:04:27;;;;;;;10.32;3.55;;;;;;;;;;5047538;28;20435;-68
2021/04/23 10:07:12;;;;;;;6.25;2.30;;;;;;;;;;5047672;28;20021;-68
2021/04/23 10:09:53;;;;;;;4.35;2.80;;;;;;;;;;5047401;28;20033;-67
2021/04/23 10:12:28;;;;;;;5.80;2.25;;;;;;;;;;5048252;28;20716;-68
2021/04/23 10:14:57;;;;;;;5.68;2.72;;;;;;;;;;5047437;28;20025;-68
2021/04/23 10:17:22;;;;;;;3.72;1.80;;;;;;;;;;5046295;28;20021;-67
2021/04/23 10:19:47;;;;;;;22.40;4.15;;;;;;;;;;5048220;28;20537;-68
2021/04/23 10:22:12;;;;;;;3.80;1.60;;;;;;;;;;5047177;28;20032;-68
2021/04/23 10:24:38;;;;;;;20.85;2.95;;;;;;;;;;5047163;28;20028;-67
2021/04/23 10:27:04;;;;;;;4.13;2.33;;;;;;;;;;5048545;28;20128;-67
2021/04/23 10:29:30;;;;;;;9.35;2.40;;;;;;;;;;5049401;28;20116;-67
2021/04/23 10:31:55;;;;;;;13.57;2.65;;;;;;;;;;5052332;28;20494;-67
2021/04/23 10:34:21;;;;;;;5.32;2.67;;;;;;;;;;5049858;28;20032;-67
2021/04/23 10:36:46;;;;;;;26.35;8.48;;;;;;;;;;5049295;28;20021;-67
2021/04/23 10:39:12;;;;;;;9.23;4.22;;;;;;;;;;5048876;28;20036;-68
2021/04/23 10:41:37;;;;;;;6.40;2.83;;;;;;;;;;5052149;28;20047;-68
2021/04/23 10:44:03;;;;;;;5.85;1.63;;;;;;;;;;5057373;28;20471;-68
2021/04/23 10:46:29;;;;;;;5.90;2.40;;;;;;;;;;5052836;28;20547;-68
2021/04/23 10:49:07;;;;;;;3.33;1.85;;;;;;;;;;5052345;28;20036;-68
2021/04/23 10:51:33;;;;;;;8.77;3.88;;;;;;;;;;5051513;28;20028;-68
2021/04/23 10:54:13;;;;;;;3.58;2.25;;;;;;;;;;5051364;28;20028;-68
2021/04/23 10:56:39;;;;;;;8.82;2.78;;;;;;;;;;5048633;28;20491;-68
2021/04/23 10:59:35;;;;;;;7.47;3.00;;;;;;;;;;5050947;28;20463;-68
2021/04/23 11:02:12;;;;;;;9.00;3.65;;;;;;;;;;5049570;28;20025;-68
2021/04/23 11:04:57;;;;;;;8.43;2.22;;;;;;;;;;5054819;28;20065;-68
2021/04/23 11:07:22;;;;;;;2.45;1.50;;;;;;;;;;5055468;28;20035;-70
2021/04/23 11:10:01;;;;;;;6.05;4.18;;;;;;;;;;5052164;28;20424;-68
2021/04/23 11:12:27;;;;;;;32.45;17.65;;;;;;;;;;5050130;28;20391;-68
2021/04/23 11:15:10;;;;;;;12.82;3.72;;;;;;;;;;5051387;28;20048;-68
2021/04/23 11:17:35;;;;;;;6.15;2.63;;;;;;;;;;5050636;28;20067;-72
2021/04/23 11:20:21;;;;;;;15.27;5.18;;;;;;;;;;5051020;28;20072;-72
2021/04/23 11:22:54;;;;;;;6.72;4.78;;;;;;;;;;5050692;28;20033;-71
2021/04/23 11:25:20;;;;;;;5.30;3.45;;;;;;;;;;5038039;28;20105;-72
2021/04/23 11:28:05;;;;;;;2.47;1.48;;;;;;;;;;5049810;28;20028;-71
2021/04/23 11:30:49;;;;;;;6.18;3.00;;;;;;;;;;5051896;28;20017;-71
2021/04/23 11:33:14;;;;;;;11.85;3.25;;;;;;;;;;5051651;28;20768;-71
2021/04/23 11:35:40;;;;;;;1.95;1.75;;;;;;;;;;5051578;28;20032;-71
2021/04/23 11:38:05;;;;;;;6.45;2.50;;;;;;;;;;5051111;28;20029;-71
2021/04/23 11:40:31;;;;;;;2.58;1.45;;;;;;;;;;5050688;28;20028;-71
2021/04/23 11:42:56;;;;;;;10.68;8.88;;;;;;;;;;5052375;28;20372;-71
2021/04/23 11:45:24;;;;;;;10.13;6.10;;;;;;;;;;5053208;28;20092;-72
2021/04/23 11:47:57;;;;;;;4.28;1.77;;;;;;;;;;5051748;28;20021;-71
2021/04/23 11:50:33;;;;;;;2.70;1.65;;;;;;;;;;5055285;28;20017;-72
2021/04/23 11:53:17;;;;;;;5.05;2.42;;;;;;;;;;5054652;28;20384;-71
2021/04/23 11:55:44;;;;;;;4.38;2.58;;;;;;;;;;5050798;28;20502;-71
2021/04/23 11:58:10;;;;;;;7.38;2.50;;;;;;;;;;5054543;28;20020;-71
2021/04/23 12:00:37;;;;;;;17.25;15.38;;;;;;;;;;5051654;28;20380;-72
2021/04/23 12:03:06;;;;;;;4.68;2.60;;;;;;;;;;5050376;28;20032;-71
2021/04/23 12:05:35;;;;;;;4.60;3.60;;;;;;;;;;5052050;28;20545;-72
2021/04/23 12:08:02;;;;;;;56.65;49.28;;;;;;;;;;5036013;28;20059;-72
2021/04/23 12:10:29;;;;;;;16.05;8.02;;;;;;;;;;5049906;28;20025;-71
2021/04/23 12:12:54;;;;;;;6.15;3.17;;;;;;;;;;5050616;28;20025;-72
2021/04/23 12:15:21;;;;;;;8.88;3.00;;;;;;;;;;5048917;28;20017;-71
2021/04/23 12:17:46;;;;;;;12.95;3.22;;;;;;;;;;5053636;28;20740;-72
2021/04/23 12:20:30;;;;;;;5.85;2.67;;;;;;;;;;5052452;28;20084;-72
2021/04/23 12:22:55;;;;;;;4.90;2.28;;;;;;;;;;5052846;28;20025;-72
2021/04/23 12:25:21;;;;;;;3.67;2.97;;;;;;;;;;5048773;28;20360;-72
2021/04/23 12:27:46;;;;;;;6.05;2.83;;;;;;;;;;5048188;28;20025;-71
2021/04/23 12:30:12;;;;;;;7.72;4.43;;;;;;;;;;5051494;28;20024;-71
2021/04/23 12:32:50;;;;;;;6.80;4.55;;;;;;;;;;5035947;28;20770;-71
2021/04/23 12:35:28;;;;;;;12.60;5.32;;;;;;;;;;5052364;28;20032;-71
2021/04/23 12:37:53;;;;;;;7.00;3.65;;;;;;;;;;5034053;28;20087;-71
2021/04/23 12:40:36;;;;;;;16.77;8.50;;;;;;;;;;5048682;28;20031;-71
2021/04/23 12:43:21;;;;;;;3.15;2.33;;;;;;;;;;5047673;28;20060;-71
2021/04/23 12:45:51;;;;;;;15.32;2.40;;;;;;;;;;5047091;28;20020;-72
2021/04/23 12:48:17;;;;;;;4.63;2.97;;;;;;;;;;5047445;28;20480;-72
2021/04/23 12:50:43;;;;;;;11.50;5.68;;;;;;;;;;5048091;28;20052;-71
2021/04/23 12:53:09;;;;;;;12.75;7.30;;;;;;;;;;5050136;28;20036;-71
2021/04/23 12:55:36;;;;;;;9.82;6.63;;;;;;;;;;5052949;28;20048;-70
2021/04/23 12:58:01;;;;;;;8.35;6.18;;;;;;;;;;5045957;28;20025;-71
2021/04/23 13:00:29;;;;;;;5.82;5.20;;;;;;;;;;5049660;28;20134;-72
2021/04/23 13:02:55;;;;;;;5.05;2.13;;;;;;;;;;5047827;28;20017;-73
2021/04/23 13:05:21;;;;;;;14.55;7.13;;;;;;;;;;5049685;28;20029;-72
2021/04/23 13:07:47;;;;;;;7.10;4.07;;;;;;;;;;5048485;28;20025;-66
2021/04/23 13:10:13;;;;;;;8.90;7.20;;;;;;;;;;5055072;22;20068;-64
2021/04/23 13:12:41;;;;;;;3.53;2.20;;;;;;;;;;5034439;28;20518;-65
2021/04/23 13:15:09;;;;;;;8.77;5.93;;;;;;;;;;5031112;28;20028;-65
2021/04/23 13:17:39;;;;;;;8.05;4.72;;;;;;;;;;5034180;28;20032;-65
2021/04/23 13:20:19;;;;;;;6.47;4.43;;;;;;;;;;5031328;28;20032;-65
2021/04/23 13:23:03;;;;;;;13.48;5.47;;;;;;;;;;5031637;28;20044;-65
2021/04/23 13:25:31;;;;;;;7.55;5.97;;;;;;;;;;5030883;28;20037;-65
2021/04/23 13:27:56;;;;;;;3.38;1.90;;;;;;;;;;5036717;28;20479;-65
2021/04/23 13:30:28;;;;;;;6.72;2.60;;;;;;;;;;5032303;28;20036;-65
2021/04/23 13:32:55;;;;;;;4.30;3.45;;;;;;;;;;5035101;28;20532;-65
2021/04/23 13:35:29;;;;;;;11.00;1.95;;;;;;;;;;5034409;28;20470;-65
2021/04/23 13:37:55;;;;;;;4.03;1.67;;;;;;;;;;5032369;28;20013;-65
2021/04/23 13:40:28;;;;;;;10.23;5.68;;;;;;;;;;5017605;28;20984;-65
2021/04/23 13:48:27;;;;;;;7.90;4.97;;;;;;;;;;5595074;23;20046;-65
2021/04/23 13:50:54;;;;;;;9.02;3.45;;;;;;;;;;4967441;28;20031;-65
2021/04/23 13:53:19;;;;;;;35.83;7.30;;;;;;;;;;4963723;28;20019;-64
2021/04/23 13:56:01;;;;;;;4.25;2.40;;;;;;;;;;4960517;28;20396;-65
2021/04/23 13:58:27;;;;;;;9.80;3.40;;;;;;;;;;4967046;28;20027;-64
2021/04/23 14:00:53;;;;;;;13.80;4.65;;;;;;;;;;4967460;28;20022;-64
2021/04/23 14:03:18;;;;;;;8.00;3.38;;;;;;;;;;4965073;28;20440;-64
2021/04/23 14:05:44;;;;;;;6.97;3.08;;;;;;;;;;4969490;28;20081;-64
2021/04/23 14:08:09;;;;;;;4.55;1.92;;;;;;;;;;4967072;28;20027;-64
2021/04/23 14:10:41;;;;;;;4.18;2.83;;;;;;;;;;4951736;28;20023;-66
2021/04/23 14:20:58;;;;;;;3.28;1.90;;;;;;;;;;5219857;23;20105;-44
2021/04/23 14:23:24;;;;;;;3.95;2.38;;;;;;;;;;4967299;28;20050;-44
2021/04/23 14:25:50;;;;;;;9.55;3.25;;;;;;;;;;4971675;28;20058;-44
2021/04/23 14:28:15;;;;;;;4.10;1.88;;;;;;;;;;4972460;28;20097;-41
2021/04/23 14:30:41;;;;;;;6.22;3.22;;;;;;;;;;4974071;28;20188;-42
2021/04/23 14:33:06;;;;;;;10.45;3.50;;;;;;;;;;4976070;28;20097;-48
2021/04/23 14:35:31;;;;;;;6.82;2.72;;;;;;;;;;4971974;28;20066;-42
2021/04/23 14:37:56;;;;;;;7.25;3.80;;;;;;;;;;4972377;28;20537;-46
2021/04/23 14:40:22;;;;;;;5.45;2.38;;;;;;;;;;4976101;28;20028;-44
2021/04/23 14:42:47;;;;;;;17.30;2.67;;;;;;;;;;4975059;28;20019;-43
2021/04/23 14:45:16;;;;;;;4.13;2.47;;;;;;;;;;4980006;28;20029;-43
2021/04/23 14:47:41;;;;;;;5.88;3.88;;;;;;;;;;4970497;28;20050;-42
2021/04/23 14:50:07;;;;;;;7.50;2.67;;;;;;;;;;4968765;28;20493;-49
2021/04/23 14:52:32;;;;;;;5.70;2.80;;;;;;;;;;4968094;28;20023;-45